<?xml version='1.0' encoding='UTF-8'?>
<gpx version="1.1" creator="https://www.komoot.de" xmlns="http://www.topografix.com/GPX/1/1" xmlns:xsi="http://www.w3.org/2001/XMLSchema-instance" xsi:schemaLocation="http://www.topografix.com/GPX/1/1 http://www.topografix.com/GPX/1/1/gpx.xsd">
  <metadata>
    <name>Wanderung</name>
    <author>
      <link href="https://www.komoot.de">
        <text>komoot</text>
        <type>text/html</type>
      </link>
    </author>
  </metadata>
  <trk>
    <name>Wanderung</name>
    <trkseg>
      <trkpt lat="48.629251" lon="11.904802">
        <ele>453.696472</ele>
        <time>2022-11-20T08:55:04.021Z</time>
      </trkpt>
      <trkpt lat="48.629419" lon="11.904988">
        <ele>453.696472</ele>
        <time>2022-11-20T08:55:24.993Z</time>
      </trkpt>
      <trkpt lat="48.629952" lon="11.905402">
        <ele>453.696472</ele>
        <time>2022-11-20T08:56:25.109Z</time>
      </trkpt>
      <trkpt lat="48.630099" lon="11.905503">
        <ele>453.889072</ele>
        <time>2022-11-20T08:56:41.747Z</time>
      </trkpt>
      <trkpt lat="48.630660" lon="11.905855">
        <ele>455.573801</ele>
        <time>2022-11-20T08:57:47.503Z</time>
      </trkpt>
      <trkpt lat="48.630389" lon="11.906688">
        <ele>457.276005</ele>
        <time>2022-11-20T08:58:57.147Z</time>
      </trkpt>
      <trkpt lat="48.630215" lon="11.907070">
        <ele>458.126579</ele>
        <time>2022-11-20T08:59:31.638Z</time>
      </trkpt>
      <trkpt lat="48.630169" lon="11.907148">
        <ele>458.318238</ele>
        <time>2022-11-20T08:59:39.330Z</time>
      </trkpt>
      <trkpt lat="48.630032" lon="11.907471">
        <ele>458.987320</ele>
        <time>2022-11-20T09:00:07.699Z</time>
      </trkpt>
      <trkpt lat="48.629622" lon="11.907682">
        <ele>460.065058</ele>
        <time>2022-11-20T09:00:55.700Z</time>
      </trkpt>
      <trkpt lat="48.629626" lon="11.907969">
        <ele>460.537217</ele>
        <time>2022-11-20T09:01:16.843Z</time>
      </trkpt>
      <trkpt lat="48.629842" lon="11.908384">
        <ele>461.406050</ele>
        <time>2022-11-20T09:01:54.913Z</time>
      </trkpt>
      <trkpt lat="48.629935" lon="11.909047">
        <ele>462.520827</ele>
        <time>2022-11-20T09:02:43.612Z</time>
      </trkpt>
      <trkpt lat="48.629989" lon="11.909039">
        <ele>462.655855</ele>
        <time>2022-11-20T09:02:49.397Z</time>
      </trkpt>
      <trkpt lat="48.629981" lon="11.909292">
        <ele>463.072458</ele>
        <time>2022-11-20T09:03:07.117Z</time>
      </trkpt>
      <trkpt lat="48.629919" lon="11.909502">
        <ele>463.365594</ele>
        <time>2022-11-20T09:03:22.851Z</time>
      </trkpt>
      <trkpt lat="48.629655" lon="11.910356">
        <ele>464.458835</ele>
        <time>2022-11-20T09:04:25.741Z</time>
      </trkpt>
      <trkpt lat="48.629331" lon="11.911054">
        <ele>465.447894</ele>
        <time>2022-11-20T09:05:25.432Z</time>
      </trkpt>
      <trkpt lat="48.628491" lon="11.912185">
        <ele>468.369185</ele>
        <time>2022-11-20T09:07:30.174Z</time>
      </trkpt>
      <trkpt lat="48.627812" lon="11.913294">
        <ele>471.629635</ele>
        <time>2022-11-20T09:09:22.311Z</time>
      </trkpt>
      <trkpt lat="48.627522" lon="11.913835">
        <ele>473.273494</ele>
        <time>2022-11-20T09:10:13.566Z</time>
      </trkpt>
      <trkpt lat="48.627504" lon="11.913939">
        <ele>473.540093</ele>
        <time>2022-11-20T09:10:21.630Z</time>
      </trkpt>
      <trkpt lat="48.627447" lon="11.914267">
        <ele>474.381124</ele>
        <time>2022-11-20T09:10:46.902Z</time>
      </trkpt>
      <trkpt lat="48.627621" lon="11.914767">
        <ele>475.782405</ele>
        <time>2022-11-20T09:11:29.218Z</time>
      </trkpt>
      <trkpt lat="48.627837" lon="11.915502">
        <ele>477.777124</ele>
        <time>2022-11-20T09:12:29.890Z</time>
      </trkpt>
      <trkpt lat="48.628686" lon="11.916502">
        <ele>481.519859</ele>
        <time>2022-11-20T09:14:32.348Z</time>
      </trkpt>
      <trkpt lat="48.629533" lon="11.917055">
        <ele>484.627354</ele>
        <time>2022-11-20T09:16:15.733Z</time>
      </trkpt>
      <trkpt lat="48.630040" lon="11.918471">
        <ele>486.152835</ele>
        <time>2022-11-20T09:18:08.576Z</time>
      </trkpt>
      <trkpt lat="48.630194" lon="11.918785">
        <ele>486.466188</ele>
        <time>2022-11-20T09:18:35.000Z</time>
      </trkpt>
      <trkpt lat="48.630299" lon="11.919002">
        <ele>486.681714</ele>
        <time>2022-11-20T09:18:53.115Z</time>
      </trkpt>
      <trkpt lat="48.632398" lon="11.920753">
        <ele>487.321998</ele>
        <time>2022-11-20T09:22:53.461Z</time>
      </trkpt>
      <trkpt lat="48.632972" lon="11.921432">
        <ele>487.458434</ele>
        <time>2022-11-20T09:24:06.513Z</time>
      </trkpt>
      <trkpt lat="48.633786" lon="11.921950">
        <ele>487.627360</ele>
        <time>2022-11-20T09:25:35.390Z</time>
      </trkpt>
      <trkpt lat="48.634011" lon="11.921974">
        <ele>487.861180</ele>
        <time>2022-11-20T09:25:58.467Z</time>
      </trkpt>
      <trkpt lat="48.634357" lon="11.922306">
        <ele>488.285888</ele>
        <time>2022-11-20T09:26:40.856Z</time>
      </trkpt>
      <trkpt lat="48.634951" lon="11.922537">
        <ele>488.921655</ele>
        <time>2022-11-20T09:27:45.328Z</time>
      </trkpt>
      <trkpt lat="48.635260" lon="11.922560">
        <ele>489.242360</ele>
        <time>2022-11-20T09:28:17.614Z</time>
      </trkpt>
      <trkpt lat="48.635776" lon="11.922674">
        <ele>489.825057</ele>
        <time>2022-11-20T09:29:11.900Z</time>
      </trkpt>
      <trkpt lat="48.636037" lon="11.922739">
        <ele>490.138359</ele>
        <time>2022-11-20T09:29:39.516Z</time>
      </trkpt>
      <trkpt lat="48.636298" lon="11.922818">
        <ele>490.453626</ele>
        <time>2022-11-20T09:30:07.380Z</time>
      </trkpt>
      <trkpt lat="48.636414" lon="11.922945">
        <ele>490.623213</ele>
        <time>2022-11-20T09:30:22.551Z</time>
      </trkpt>
      <trkpt lat="48.636673" lon="11.923215">
        <ele>490.995737</ele>
        <time>2022-11-20T09:30:55.572Z</time>
      </trkpt>
      <trkpt lat="48.636932" lon="11.923370">
        <ele>491.325630</ele>
        <time>2022-11-20T09:31:24.544Z</time>
      </trkpt>
      <trkpt lat="48.637767" lon="11.924076">
        <ele>492.045570</ele>
        <time>2022-11-20T09:33:02.899Z</time>
      </trkpt>
      <trkpt lat="48.639021" lon="11.924728">
        <ele>492.644295</ele>
        <time>2022-11-20T09:35:17.935Z</time>
      </trkpt>
      <trkpt lat="48.639128" lon="11.924784">
        <ele>492.616874</ele>
        <time>2022-11-20T09:35:29.671Z</time>
      </trkpt>
      <trkpt lat="48.640078" lon="11.928067">
        <ele>491.996015</ele>
        <time>2022-11-20T09:39:29.133Z</time>
      </trkpt>
      <trkpt lat="48.640050" lon="11.929506">
        <ele>491.836136</ele>
        <time>2022-11-20T09:41:04.735Z</time>
      </trkpt>
      <trkpt lat="48.639914" lon="11.930066">
        <ele>492.369720</ele>
        <time>2022-11-20T09:41:44.682Z</time>
      </trkpt>
      <trkpt lat="48.639963" lon="11.930294">
        <ele>492.584143</ele>
        <time>2022-11-20T09:42:00.850Z</time>
      </trkpt>
      <trkpt lat="48.640230" lon="11.930491">
        <ele>492.986173</ele>
        <time>2022-11-20T09:42:31.830Z</time>
      </trkpt>
      <trkpt lat="48.640478" lon="11.930813">
        <ele>493.428432</ele>
        <time>2022-11-20T09:43:06.476Z</time>
      </trkpt>
      <trkpt lat="48.640764" lon="11.931345">
        <ele>494.041786</ele>
        <time>2022-11-20T09:43:55.284Z</time>
      </trkpt>
      <trkpt lat="48.641215" lon="11.931746">
        <ele>494.397050</ele>
        <time>2022-11-20T09:44:53.202Z</time>
      </trkpt>
      <trkpt lat="48.641520" lon="11.931864">
        <ele>494.562853</ele>
        <time>2022-11-20T09:45:28.519Z</time>
      </trkpt>
      <trkpt lat="48.642501" lon="11.932572">
        <ele>494.906046</ele>
        <time>2022-11-20T09:47:17.514Z</time>
      </trkpt>
      <trkpt lat="48.642605" lon="11.932647">
        <ele>494.074507</ele>
        <time>2022-11-20T09:47:29.450Z</time>
      </trkpt>
      <trkpt lat="48.642867" lon="11.931681">
        <ele>489.094333</ele>
        <time>2022-11-20T09:48:47.635Z</time>
      </trkpt>
      <trkpt lat="48.642803" lon="11.931403">
        <ele>487.690298</ele>
        <time>2022-11-20T09:49:10.397Z</time>
      </trkpt>
      <trkpt lat="48.642891" lon="11.931178">
        <ele>486.443309</ele>
        <time>2022-11-20T09:49:30.475Z</time>
      </trkpt>
      <trkpt lat="48.643485" lon="11.930618">
        <ele>481.194538</ele>
        <time>2022-11-20T09:50:54.387Z</time>
      </trkpt>
      <trkpt lat="48.643782" lon="11.930362">
        <ele>478.073659</ele>
        <time>2022-11-20T09:51:36.437Z</time>
      </trkpt>
      <trkpt lat="48.644401" lon="11.929671">
        <ele>471.050431</ele>
        <time>2022-11-20T09:53:09.164Z</time>
      </trkpt>
      <trkpt lat="48.645257" lon="11.928922">
        <ele>463.678552</ele>
        <time>2022-11-20T09:55:00.959Z</time>
      </trkpt>
      <trkpt lat="48.645582" lon="11.928667">
        <ele>461.835785</ele>
        <time>2022-11-20T09:55:41.545Z</time>
      </trkpt>
      <trkpt lat="48.646196" lon="11.928464">
        <ele>458.672125</ele>
        <time>2022-11-20T09:56:50.773Z</time>
      </trkpt>
      <trkpt lat="48.646395" lon="11.928335">
        <ele>457.582379</ele>
        <time>2022-11-20T09:57:14.580Z</time>
      </trkpt>
      <trkpt lat="48.648349" lon="11.926423">
        <ele>451.272895</ele>
        <time>2022-11-20T10:01:20.040Z</time>
      </trkpt>
      <trkpt lat="48.648691" lon="11.926154">
        <ele>450.722390</ele>
        <time>2022-11-20T10:01:59.136Z</time>
      </trkpt>
      <trkpt lat="48.648716" lon="11.926023">
        <ele>450.593718</ele>
        <time>2022-11-20T10:02:08.171Z</time>
      </trkpt>
      <trkpt lat="48.648660" lon="11.925813">
        <ele>450.380017</ele>
        <time>2022-11-20T10:02:23.710Z</time>
      </trkpt>
      <trkpt lat="48.648396" lon="11.925313">
        <ele>449.776022</ele>
        <time>2022-11-20T10:03:07.187Z</time>
      </trkpt>
      <trkpt lat="48.648317" lon="11.925030">
        <ele>449.486107</ele>
        <time>2022-11-20T10:03:27.755Z</time>
      </trkpt>
      <trkpt lat="48.648187" lon="11.923914">
        <ele>449.013073</ele>
        <time>2022-11-20T10:04:44.558Z</time>
      </trkpt>
      <trkpt lat="48.648226" lon="11.923768">
        <ele>448.978133</ele>
        <time>2022-11-20T10:04:55.558Z</time>
      </trkpt>
      <trkpt lat="48.648829" lon="11.922847">
        <ele>448.690451</ele>
        <time>2022-11-20T10:06:23.056Z</time>
      </trkpt>
      <trkpt lat="48.649212" lon="11.922115">
        <ele>449.572328</ele>
        <time>2022-11-20T10:07:30.465Z</time>
      </trkpt>
      <trkpt lat="48.648940" lon="11.921759">
        <ele>450.657228</ele>
        <time>2022-11-20T10:08:10.110Z</time>
      </trkpt>
      <trkpt lat="48.648440" lon="11.921297">
        <ele>452.424644</ele>
        <time>2022-11-20T10:09:13.683Z</time>
      </trkpt>
      <trkpt lat="48.648464" lon="11.921235">
        <ele>452.567880</ele>
        <time>2022-11-20T10:09:25.508Z</time>
      </trkpt>
      <trkpt lat="48.651121" lon="11.914469">
        <ele>466.780577</ele>
        <time>2022-11-20T10:18:58.493Z</time>
      </trkpt>
      <trkpt lat="48.651835" lon="11.913039">
        <ele>468.308363</ele>
        <time>2022-11-20T10:20:59.022Z</time>
      </trkpt>
      <trkpt lat="48.652891" lon="11.911227">
        <ele>468.566951</ele>
        <time>2022-11-20T10:23:41.210Z</time>
      </trkpt>
      <trkpt lat="48.652928" lon="11.911164">
        <ele>468.519601</ele>
        <time>2022-11-20T10:23:46.925Z</time>
      </trkpt>
      <trkpt lat="48.652381" lon="11.909735">
        <ele>467.591900</ele>
        <time>2022-11-20T10:25:36.803Z</time>
      </trkpt>
      <trkpt lat="48.651948" lon="11.908887">
        <ele>465.843179</ele>
        <time>2022-11-20T10:26:51.903Z</time>
      </trkpt>
      <trkpt lat="48.650810" lon="11.907250">
        <ele>459.922961</ele>
        <time>2022-11-20T10:29:44.308Z</time>
      </trkpt>
      <trkpt lat="48.650156" lon="11.906822">
        <ele>459.205645</ele>
        <time>2022-11-20T10:30:59.617Z</time>
      </trkpt>
      <trkpt lat="48.649972" lon="11.906588">
        <ele>458.963701</ele>
        <time>2022-11-20T10:31:24.031Z</time>
      </trkpt>
      <trkpt lat="48.649259" lon="11.905265">
        <ele>459.275549</ele>
        <time>2022-11-20T10:33:23.907Z</time>
      </trkpt>
      <trkpt lat="48.649129" lon="11.905399">
        <ele>459.666363</ele>
        <time>2022-11-20T10:33:40.970Z</time>
      </trkpt>
      <trkpt lat="48.648815" lon="11.904209">
        <ele>461.769953</ele>
        <time>2022-11-20T10:35:13.698Z</time>
      </trkpt>
      <trkpt lat="48.648854" lon="11.903972">
        <ele>462.170909</ele>
        <time>2022-11-20T10:35:31.323Z</time>
      </trkpt>
      <trkpt lat="48.648874" lon="11.903847">
        <ele>462.382046</ele>
        <time>2022-11-20T10:35:40.618Z</time>
      </trkpt>
      <trkpt lat="48.649127" lon="11.903533">
        <ele>463.333129</ele>
        <time>2022-11-20T10:36:16.712Z</time>
      </trkpt>
      <trkpt lat="48.649134" lon="11.902364">
        <ele>465.804157</ele>
        <time>2022-11-20T10:37:43.108Z</time>
      </trkpt>
      <trkpt lat="48.649228" lon="11.901197">
        <ele>468.289120</ele>
        <time>2022-11-20T10:39:09.918Z</time>
      </trkpt>
      <trkpt lat="48.649478" lon="11.899670">
        <ele>470.512513</ele>
        <time>2022-11-20T10:41:05.799Z</time>
      </trkpt>
      <trkpt lat="48.649524" lon="11.897450">
        <ele>471.495875</ele>
        <time>2022-11-20T10:43:36.344Z</time>
      </trkpt>
      <trkpt lat="48.648481" lon="11.897004">
        <ele>470.312236</ele>
        <time>2022-11-20T10:45:29.133Z</time>
      </trkpt>
      <trkpt lat="48.648464" lon="11.897087">
        <ele>470.249538</ele>
        <time>2022-11-20T10:45:35.622Z</time>
      </trkpt>
      <trkpt lat="48.648075" lon="11.898982">
        <ele>467.178083</ele>
        <time>2022-11-20T10:47:54.010Z</time>
      </trkpt>
      <trkpt lat="48.647684" lon="11.901814">
        <ele>463.796665</ele>
        <time>2022-11-20T10:51:12.043Z</time>
      </trkpt>
      <trkpt lat="48.647587" lon="11.902689">
        <ele>463.132791</ele>
        <time>2022-11-20T10:52:12.166Z</time>
      </trkpt>
      <trkpt lat="48.647599" lon="11.902908">
        <ele>463.085111</ele>
        <time>2022-11-20T10:52:27.145Z</time>
      </trkpt>
      <trkpt lat="48.647864" lon="11.904577">
        <ele>462.712677</ele>
        <time>2022-11-20T10:54:21.924Z</time>
      </trkpt>
      <trkpt lat="48.647858" lon="11.904987">
        <ele>462.623698</ele>
        <time>2022-11-20T10:54:49.798Z</time>
      </trkpt>
      <trkpt lat="48.647994" lon="11.905725">
        <ele>463.496932</ele>
        <time>2022-11-20T10:55:43.518Z</time>
      </trkpt>
      <trkpt lat="48.647980" lon="11.905881">
        <ele>463.696003</ele>
        <time>2022-11-20T10:55:54.197Z</time>
      </trkpt>
      <trkpt lat="48.647579" lon="11.905675">
        <ele>464.506479</ele>
        <time>2022-11-20T10:56:39.879Z</time>
      </trkpt>
      <trkpt lat="48.647358" lon="11.905682">
        <ele>464.929544</ele>
        <time>2022-11-20T10:57:04.014Z</time>
      </trkpt>
      <trkpt lat="48.647085" lon="11.904280">
        <ele>466.125718</ele>
        <time>2022-11-20T10:58:49.006Z</time>
      </trkpt>
      <trkpt lat="48.646988" lon="11.904013">
        <ele>466.164791</ele>
        <time>2022-11-20T10:59:10.807Z</time>
      </trkpt>
      <trkpt lat="48.646853" lon="11.903829">
        <ele>466.200051</ele>
        <time>2022-11-20T10:59:29.855Z</time>
      </trkpt>
      <trkpt lat="48.646360" lon="11.903499">
        <ele>466.304677</ele>
        <time>2022-11-20T11:00:24.033Z</time>
      </trkpt>
      <trkpt lat="48.645790" lon="11.902996">
        <ele>465.812446</ele>
        <time>2022-11-20T11:01:32.515Z</time>
      </trkpt>
      <trkpt lat="48.644848" lon="11.902474">
        <ele>462.174466</ele>
        <time>2022-11-20T11:03:20.823Z</time>
      </trkpt>
      <trkpt lat="48.644600" lon="11.902191">
        <ele>461.048089</ele>
        <time>2022-11-20T11:03:54.661Z</time>
      </trkpt>
      <trkpt lat="48.644349" lon="11.901631">
        <ele>459.588381</ele>
        <time>2022-11-20T11:04:43.540Z</time>
      </trkpt>
      <trkpt lat="48.644245" lon="11.901648">
        <ele>459.344863</ele>
        <time>2022-11-20T11:04:54.995Z</time>
      </trkpt>
      <trkpt lat="48.643973" lon="11.901691">
        <ele>458.708206</ele>
        <time>2022-11-20T11:05:24.381Z</time>
      </trkpt>
      <trkpt lat="48.643269" lon="11.902175">
        <ele>456.908136</ele>
        <time>2022-11-20T11:06:46.107Z</time>
      </trkpt>
      <trkpt lat="48.643110" lon="11.902178">
        <ele>456.537957</ele>
        <time>2022-11-20T11:07:02.566Z</time>
      </trkpt>
      <trkpt lat="48.642055" lon="11.901795">
        <ele>455.921376</ele>
        <time>2022-11-20T11:08:52.921Z</time>
      </trkpt>
      <trkpt lat="48.641898" lon="11.903332">
        <ele>456.249432</ele>
        <time>2022-11-20T11:10:38.720Z</time>
      </trkpt>
      <trkpt lat="48.641962" lon="11.906111">
        <ele>454.865913</ele>
        <time>2022-11-20T11:13:46.373Z</time>
      </trkpt>
      <trkpt lat="48.641906" lon="11.907960">
        <ele>454.606173</ele>
        <time>2022-11-20T11:15:50.724Z</time>
      </trkpt>
      <trkpt lat="48.641932" lon="11.908390">
        <ele>454.547067</ele>
        <time>2022-11-20T11:16:19.517Z</time>
      </trkpt>
      <trkpt lat="48.641907" lon="11.908432">
        <ele>454.539329</ele>
        <time>2022-11-20T11:16:23.807Z</time>
      </trkpt>
      <trkpt lat="48.641891" lon="11.908458">
        <ele>454.534466</ele>
        <time>2022-11-20T11:16:26.682Z</time>
      </trkpt>
      <trkpt lat="48.641669" lon="11.908537">
        <ele>454.487222</ele>
        <time>2022-11-20T11:16:49.550Z</time>
      </trkpt>
      <trkpt lat="48.641134" lon="11.908546">
        <ele>455.330922</ele>
        <time>2022-11-20T11:17:46.472Z</time>
      </trkpt>
      <trkpt lat="48.640416" lon="11.908294">
        <ele>456.524625</ele>
        <time>2022-11-20T11:19:06.059Z</time>
      </trkpt>
      <trkpt lat="48.639303" lon="11.908157">
        <ele>457.520557</ele>
        <time>2022-11-20T11:21:03.383Z</time>
      </trkpt>
      <trkpt lat="48.638057" lon="11.907895">
        <ele>457.726213</ele>
        <time>2022-11-20T11:23:09.889Z</time>
      </trkpt>
      <trkpt lat="48.637194" lon="11.907546">
        <ele>456.416794</ele>
        <time>2022-11-20T11:24:41.895Z</time>
      </trkpt>
      <trkpt lat="48.637035" lon="11.907541">
        <ele>456.183674</ele>
        <time>2022-11-20T11:24:58.313Z</time>
      </trkpt>
      <trkpt lat="48.636987" lon="11.907608">
        <ele>456.087952</ele>
        <time>2022-11-20T11:25:05.234Z</time>
      </trkpt>
      <trkpt lat="48.636492" lon="11.910864">
        <ele>452.402141</ele>
        <time>2022-11-20T11:28:54.618Z</time>
      </trkpt>
      <trkpt lat="48.636407" lon="11.911420">
        <ele>451.838169</ele>
        <time>2022-11-20T11:29:33.587Z</time>
      </trkpt>
      <trkpt lat="48.636011" lon="11.911153">
        <ele>451.374298</ele>
        <time>2022-11-20T11:30:18.305Z</time>
      </trkpt>
      <trkpt lat="48.635007" lon="11.910729">
        <ele>450.258983</ele>
        <time>2022-11-20T11:32:05.331Z</time>
      </trkpt>
      <trkpt lat="48.633990" lon="11.910016">
        <ele>450.523717</ele>
        <time>2022-11-20T11:33:58.487Z</time>
      </trkpt>
      <trkpt lat="48.633309" lon="11.909337">
        <ele>450.920755</ele>
        <time>2022-11-20T11:35:23.092Z</time>
      </trkpt>
      <trkpt lat="48.632850" lon="11.908824">
        <ele>451.338094</ele>
        <time>2022-11-20T11:36:22.190Z</time>
      </trkpt>
      <trkpt lat="48.632663" lon="11.908708">
        <ele>451.489902</ele>
        <time>2022-11-20T11:36:43.026Z</time>
      </trkpt>
      <trkpt lat="48.632154" lon="11.908387">
        <ele>451.904109</ele>
        <time>2022-11-20T11:37:39.804Z</time>
      </trkpt>
      <trkpt lat="48.631862" lon="11.907965">
        <ele>452.207411</ele>
        <time>2022-11-20T11:38:21.295Z</time>
      </trkpt>
      <trkpt lat="48.631690" lon="11.907535">
        <ele>452.324347</ele>
        <time>2022-11-20T11:38:55.015Z</time>
      </trkpt>
      <trkpt lat="48.631406" lon="11.906671">
        <ele>452.416970</ele>
        <time>2022-11-20T11:39:58.974Z</time>
      </trkpt>
      <trkpt lat="48.631183" lon="11.906306">
        <ele>452.464682</ele>
        <time>2022-11-20T11:40:32.063Z</time>
      </trkpt>
      <trkpt lat="48.630871" lon="11.906001">
        <ele>452.518630</ele>
        <time>2022-11-20T11:41:09.424Z</time>
      </trkpt>
      <trkpt lat="48.630660" lon="11.905855">
        <ele>452.552327</ele>
        <time>2022-11-20T11:41:33.007Z</time>
      </trkpt>
      <trkpt lat="48.630099" lon="11.905503">
        <ele>452.553795</ele>
        <time>2022-11-20T11:42:34.907Z</time>
      </trkpt>
      <trkpt lat="48.629952" lon="11.905402">
        <ele>452.553795</ele>
        <time>2022-11-20T11:42:51.392Z</time>
      </trkpt>
      <trkpt lat="48.629419" lon="11.904988">
        <ele>452.553795</ele>
        <time>2022-11-20T11:43:52.348Z</time>
      </trkpt>
      <trkpt lat="48.629251" lon="11.904802">
        <ele>452.553795</ele>
        <time>2022-11-20T11:44:13.437Z</time>
      </trkpt>
      <trkpt lat="48.629180" lon="11.904723">
        <ele>452.553795</ele>
        <time>2022-11-20T11:44:22.425Z</time>
      </trkpt>
    </trkseg>
  </trk>
</gpx>